sensor_id;sensor_type;location;lat;lon;timestamp;temperature;humidity
19200;DHT22;9732;52.498;5.408;2023-12-14T00:00:04;6.80;99.90
19200;DHT22;9732;52.498;5.408;2023-12-14T00:02:33;6.80;99.90
19200;DHT22;9732;52.498;5.408;2023-12-14T00:04:59;6.80;99.90
19200;DHT22;9732;52.498;5.408;2023-12-14T00:07:26;6.80;99.90
19200;DHT22;9732;52.498;5.408;2023-12-14T00:09:54;6.80;99.90
19200;DHT22;9732;52.498;5.408;2023-12-14T00:12:21;6.80;99.90
19200;DHT22;9732;52.498;5.408;2023-12-14T00:14:48;6.80;99.90
19200;DHT22;9732;52.498;5.408;2023-12-14T00:17:14;6.80;99.90
19200;DHT22;9732;52.498;5.408;2023-12-14T00:19:41;6.80;99.90
19200;DHT22;9732;52.498;5.408;2023-12-14T00:22:10;6.80;99.90
19200;DHT22;9732;52.498;5.408;2023-12-14T00:24:39;6.80;99.90
19200;DHT22;9732;52.498;5.408;2023-12-14T00:27:07;6.80;99.90
19200;DHT22;9732;52.498;5.408;2023-12-14T00:29:35;6.80;99.90
19200;DHT22;9732;52.498;5.408;2023-12-14T00:32:02;6.80;99.90
19200;DHT22;9732;52.498;5.408;2023-12-14T00:34:29;6.80;99.90
19200;DHT22;9732;52.498;5.408;2023-12-14T00:36:56;6.80;99.90
19200;DHT22;9732;52.498;5.408;2023-12-14T00:39:23;6.80;99.90
19200;DHT22;9732;52.498;5.408;2023-12-14T00:41:49;6.70;99.90
19200;DHT22;9732;52.498;5.408;2023-12-14T00:44:17;6.80;99.90
19200;DHT22;9732;52.498;5.408;2023-12-14T00:46:44;6.80;99.90
19200;DHT22;9732;52.498;5.408;2023-12-14T00:49:11;6.70;99.90
19200;DHT22;9732;52.498;5.408;2023-12-14T00:51:38;6.80;99.90
19200;DHT22;9732;52.498;5.408;2023-12-14T00:54:05;6.80;99.90
19200;DHT22;9732;52.498;5.408;2023-12-14T00:56:32;6.70;99.90
19200;DHT22;9732;52.498;5.408;2023-12-14T00:58:59;6.70;99.90
19200;DHT22;9732;52.498;5.408;2023-12-14T01:01:27;6.70;99.90
19200;DHT22;9732;52.498;5.408;2023-12-14T01:03:54;6.70;99.90
19200;DHT22;9732;52.498;5.408;2023-12-14T01:06:20;6.70;99.90
19200;DHT22;9732;52.498;5.408;2023-12-14T01:08:47;6.80;99.90
19200;DHT22;9732;52.498;5.408;2023-12-14T01:11:14;6.80;99.90
19200;DHT22;9732;52.498;5.408;2023-12-14T01:13:40;6.70;99.90
19200;DHT22;9732;52.498;5.408;2023-12-14T01:16:08;6.70;99.90
19200;DHT22;9732;52.498;5.408;2023-12-14T01:18:36;6.70;99.90
19200;DHT22;9732;52.498;5.408;2023-12-14T01:21:03;6.70;99.90
19200;DHT22;9732;52.498;5.408;2023-12-14T01:23:30;6.80;99.90
19200;DHT22;9732;52.498;5.408;2023-12-14T01:25:56;6.80;99.90
19200;DHT22;9732;52.498;5.408;2023-12-14T01:28:23;6.70;99.90
19200;DHT22;9732;52.498;5.408;2023-12-14T01:30:50;6.80;99.90
19200;DHT22;9732;52.498;5.408;2023-12-14T01:33:17;6.80;99.90
19200;DHT22;9732;52.498;5.408;2023-12-14T01:35:46;6.80;99.90
19200;DHT22;9732;52.498;5.408;2023-12-14T01:38:13;6.80;99.90
19200;DHT22;9732;52.498;5.408;2023-12-14T01:40:40;6.70;99.90
19200;DHT22;9732;52.498;5.408;2023-12-14T01:43:08;6.70;99.90
19200;DHT22;9732;52.498;5.408;2023-12-14T01:45:36;6.70;99.90
19200;DHT22;9732;52.498;5.408;2023-12-14T01:48:03;6.70;99.90
19200;DHT22;9732;52.498;5.408;2023-12-14T01:50:29;6.70;99.90
19200;DHT22;9732;52.498;5.408;2023-12-14T01:52:57;6.70;99.90
19200;DHT22;9732;52.498;5.408;2023-12-14T01:55:24;6.80;99.90
19200;DHT22;9732;52.498;5.408;2023-12-14T01:57:52;6.80;99.90
19200;DHT22;9732;52.498;5.408;2023-12-14T02:00:23;6.70;99.90
19200;DHT22;9732;52.498;5.408;2023-12-14T02:02:53;6.70;99.90
19200;DHT22;9732;52.498;5.408;2023-12-14T02:05:20;6.70;99.90
19200;DHT22;9732;52.498;5.408;2023-12-14T02:07:47;6.70;99.90
19200;DHT22;9732;52.498;5.408;2023-12-14T02:10:16;6.70;99.90
19200;DHT22;9732;52.498;5.408;2023-12-14T02:12:43;6.70;99.90
19200;DHT22;9732;52.498;5.408;2023-12-14T02:15:10;6.60;99.90
19200;DHT22;9732;52.498;5.408;2023-12-14T02:17:37;6.60;99.90
19200;DHT22;9732;52.498;5.408;2023-12-14T02:20:04;6.70;99.90
19200;DHT22;9732;52.498;5.408;2023-12-14T02:22:36;6.70;99.90
19200;DHT22;9732;52.498;5.408;2023-12-14T02:25:14;6.60;99.90
19200;DHT22;9732;52.498;5.408;2023-12-14T02:27:41;6.60;99.90
19200;DHT22;9732;52.498;5.408;2023-12-14T02:30:08;6.60;99.90
19200;DHT22;9732;52.498;5.408;2023-12-14T02:32:35;6.60;99.90
19200;DHT22;9732;52.498;5.408;2023-12-14T02:35:02;6.60;99.90
19200;DHT22;9732;52.498;5.408;2023-12-14T02:37:29;6.60;99.90
19200;DHT22;9732;52.498;5.408;2023-12-14T02:39:57;6.60;99.90
19200;DHT22;9732;52.498;5.408;2023-12-14T02:42:24;6.60;99.90
19200;DHT22;9732;52.498;5.408;2023-12-14T02:44:50;6.60;99.90
19200;DHT22;9732;52.498;5.408;2023-12-14T02:47:17;6.60;99.90
19200;DHT22;9732;52.498;5.408;2023-12-14T02:49:44;6.60;99.90
19200;DHT22;9732;52.498;5.408;2023-12-14T02:52:11;6.50;99.90
19200;DHT22;9732;52.498;5.408;2023-12-14T02:54:38;6.50;99.90
19200;DHT22;9732;52.498;5.408;2023-12-14T02:57:07;6.50;99.90
19200;DHT22;9732;52.498;5.408;2023-12-14T02:59:33;6.50;99.90
19200;DHT22;9732;52.498;5.408;2023-12-14T03:02:00;6.50;99.90
19200;DHT22;9732;52.498;5.408;2023-12-14T03:04:27;6.60;99.90
19200;DHT22;9732;52.498;5.408;2023-12-14T03:06:54;6.60;99.90
19200;DHT22;9732;52.498;5.408;2023-12-14T03:09:21;6.60;99.90
19200;DHT22;9732;52.498;5.408;2023-12-14T03:11:48;6.50;99.90
19200;DHT22;9732;52.498;5.408;2023-12-14T03:14:16;6.50;99.90
19200;DHT22;9732;52.498;5.408;2023-12-14T03:16:43;6.50;99.90
19200;DHT22;9732;52.498;5.408;2023-12-14T03:19:10;6.50;99.90
19200;DHT22;9732;52.498;5.408;2023-12-14T03:21:37;6.50;99.90
19200;DHT22;9732;52.498;5.408;2023-12-14T03:24:04;6.50;99.90
19200;DHT22;9732;52.498;5.408;2023-12-14T03:26:30;6.50;99.90
19200;DHT22;9732;52.498;5.408;2023-12-14T03:28:57;6.50;99.90
19200;DHT22;9732;52.498;5.408;2023-12-14T03:31:25;6.50;99.90
19200;DHT22;9732;52.498;5.408;2023-12-14T03:33:52;6.50;99.90
19200;DHT22;9732;52.498;5.408;2023-12-14T03:36:19;6.50;99.90
19200;DHT22;9732;52.498;5.408;2023-12-14T03:38:48;6.40;99.90
19200;DHT22;9732;52.498;5.408;2023-12-14T03:41:14;6.50;99.90
19200;DHT22;9732;52.498;5.408;2023-12-14T03:43:41;6.50;99.90
19200;DHT22;9732;52.498;5.408;2023-12-14T03:46:08;6.40;99.90
19200;DHT22;9732;52.498;5.408;2023-12-14T03:48:36;6.40;99.90
19200;DHT22;9732;52.498;5.408;2023-12-14T03:51:03;6.40;99.90
19200;DHT22;9732;52.498;5.408;2023-12-14T03:53:30;6.40;99.90
19200;DHT22;9732;52.498;5.408;2023-12-14T03:55:57;6.40;99.90
19200;DHT22;9732;52.498;5.408;2023-12-14T03:58:24;6.40;99.90
19200;DHT22;9732;52.498;5.408;2023-12-14T04:00:51;6.40;99.90
19200;DHT22;9732;52.498;5.408;2023-12-14T04:03:17;6.30;99.90
19200;DHT22;9732;52.498;5.408;2023-12-14T04:05:45;6.30;99.90
19200;DHT22;9732;52.498;5.408;2023-12-14T04:08:12;6.30;99.90
19200;DHT22;9732;52.498;5.408;2023-12-14T04:10:39;6.20;99.90
19200;DHT22;9732;52.498;5.408;2023-12-14T04:13:05;6.30;99.90
19200;DHT22;9732;52.498;5.408;2023-12-14T04:15:32;6.30;99.90
19200;DHT22;9732;52.498;5.408;2023-12-14T04:18:01;6.30;99.90
19200;DHT22;9732;52.498;5.408;2023-12-14T04:20:28;6.30;99.90
19200;DHT22;9732;52.498;5.408;2023-12-14T04:22:56;6.30;99.90
19200;DHT22;9732;52.498;5.408;2023-12-14T04:25:23;6.30;99.90
19200;DHT22;9732;52.498;5.408;2023-12-14T04:27:50;6.20;99.90
19200;DHT22;9732;52.498;5.408;2023-12-14T04:30:18;6.20;99.90
19200;DHT22;9732;52.498;5.408;2023-12-14T04:32:46;6.20;99.90
19200;DHT22;9732;52.498;5.408;2023-12-14T04:35:13;6.20;99.90
19200;DHT22;9732;52.498;5.408;2023-12-14T04:37:40;6.20;99.90
19200;DHT22;9732;52.498;5.408;2023-12-14T04:40:10;6.20;99.90
19200;DHT22;9732;52.498;5.408;2023-12-14T04:42:38;6.20;99.90
19200;DHT22;9732;52.498;5.408;2023-12-14T04:45:06;6.20;99.90
19200;DHT22;9732;52.498;5.408;2023-12-14T04:47:34;6.10;99.90
19200;DHT22;9732;52.498;5.408;2023-12-14T04:50:05;6.20;99.90
19200;DHT22;9732;52.498;5.408;2023-12-14T04:52:33;6.10;99.90
19200;DHT22;9732;52.498;5.408;2023-12-14T04:55:04;6.10;99.90
19200;DHT22;9732;52.498;5.408;2023-12-14T04:57:33;6.20;99.90
19200;DHT22;9732;52.498;5.408;2023-12-14T05:00:00;6.10;99.90
19200;DHT22;9732;52.498;5.408;2023-12-14T05:02:27;6.10;99.90
19200;DHT22;9732;52.498;5.408;2023-12-14T05:04:54;6.10;99.90
19200;DHT22;9732;52.498;5.408;2023-12-14T05:07:21;6.10;99.90
19200;DHT22;9732;52.498;5.408;2023-12-14T05:09:49;6.10;99.90
19200;DHT22;9732;52.498;5.408;2023-12-14T05:12:16;6.10;99.90
19200;DHT22;9732;52.498;5.408;2023-12-14T05:14:43;6.00;99.90
19200;DHT22;9732;52.498;5.408;2023-12-14T05:17:10;6.00;99.90
19200;DHT22;9732;52.498;5.408;2023-12-14T05:19:36;6.00;99.90
19200;DHT22;9732;52.498;5.408;2023-12-14T05:22:03;6.00;99.90
19200;DHT22;9732;52.498;5.408;2023-12-14T05:24:30;6.00;99.90
19200;DHT22;9732;52.498;5.408;2023-12-14T05:26:57;6.00;99.90
19200;DHT22;9732;52.498;5.408;2023-12-14T05:29:24;6.10;99.90
19200;DHT22;9732;52.498;5.408;2023-12-14T05:31:52;6.00;99.90
19200;DHT22;9732;52.498;5.408;2023-12-14T05:34:18;6.00;99.90
19200;DHT22;9732;52.498;5.408;2023-12-14T05:36:45;6.00;99.90
19200;DHT22;9732;52.498;5.408;2023-12-14T05:39:12;5.90;99.90
19200;DHT22;9732;52.498;5.408;2023-12-14T05:41:40;5.90;99.90
19200;DHT22;9732;52.498;5.408;2023-12-14T05:44:07;6.00;99.90
19200;DHT22;9732;52.498;5.408;2023-12-14T05:46:34;6.00;99.90
19200;DHT22;9732;52.498;5.408;2023-12-14T05:49:02;6.10;99.90
19200;DHT22;9732;52.498;5.408;2023-12-14T05:51:29;6.00;99.90
19200;DHT22;9732;52.498;5.408;2023-12-14T05:53:56;6.00;99.90
19200;DHT22;9732;52.498;5.408;2023-12-14T05:56:23;6.00;99.90
19200;DHT22;9732;52.498;5.408;2023-12-14T05:58:51;6.00;99.90
19200;DHT22;9732;52.498;5.408;2023-12-14T06:01:18;6.00;99.90
19200;DHT22;9732;52.498;5.408;2023-12-14T06:03:44;6.10;99.90
19200;DHT22;9732;52.498;5.408;2023-12-14T06:06:13;6.10;99.90
19200;DHT22;9732;52.498;5.408;2023-12-14T06:08:40;6.20;99.90
19200;DHT22;9732;52.498;5.408;2023-12-14T06:11:07;6.20;99.90
19200;DHT22;9732;52.498;5.408;2023-12-14T06:13:34;6.20;99.90
19200;DHT22;9732;52.498;5.408;2023-12-14T06:16:01;6.20;99.90
19200;DHT22;9732;52.498;5.408;2023-12-14T06:18:28;6.20;99.90
19200;DHT22;9732;52.498;5.408;2023-12-14T06:20:55;6.20;99.90
19200;DHT22;9732;52.498;5.408;2023-12-14T06:23:23;6.20;99.90
19200;DHT22;9732;52.498;5.408;2023-12-14T06:25:50;6.20;99.90
19200;DHT22;9732;52.498;5.408;2023-12-14T06:28:17;6.20;99.90
19200;DHT22;9732;52.498;5.408;2023-12-14T06:30:44;6.20;99.90
19200;DHT22;9732;52.498;5.408;2023-12-14T06:33:11;6.20;99.90
19200;DHT22;9732;52.498;5.408;2023-12-14T06:35:38;6.20;99.90
19200;DHT22;9732;52.498;5.408;2023-12-14T06:38:04;6.20;99.90
19200;DHT22;9732;52.498;5.408;2023-12-14T06:40:32;6.20;99.90
19200;DHT22;9732;52.498;5.408;2023-12-14T06:42:59;6.20;99.90
19200;DHT22;9732;52.498;5.408;2023-12-14T06:45:26;6.20;99.90
19200;DHT22;9732;52.498;5.408;2023-12-14T06:47:53;6.20;99.90
19200;DHT22;9732;52.498;5.408;2023-12-14T06:50:19;6.20;99.90
19200;DHT22;9732;52.498;5.408;2023-12-14T06:52:46;6.30;99.90
19200;DHT22;9732;52.498;5.408;2023-12-14T06:55:19;6.30;99.90
19200;DHT22;9732;52.498;5.408;2023-12-14T06:57:47;6.30;99.90
19200;DHT22;9732;52.498;5.408;2023-12-14T07:00:14;6.30;99.90
19200;DHT22;9732;52.498;5.408;2023-12-14T07:02:42;6.30;99.90
19200;DHT22;9732;52.498;5.408;2023-12-14T07:05:09;6.30;99.90
19200;DHT22;9732;52.498;5.408;2023-12-14T07:07:35;6.30;99.90
19200;DHT22;9732;52.498;5.408;2023-12-14T07:10:02;6.30;99.90
19200;DHT22;9732;52.498;5.408;2023-12-14T07:12:29;6.30;99.90
19200;DHT22;9732;52.498;5.408;2023-12-14T07:14:57;6.30;99.90
19200;DHT22;9732;52.498;5.408;2023-12-14T07:17:24;6.30;99.90
19200;DHT22;9732;52.498;5.408;2023-12-14T07:19:51;6.30;99.90
19200;DHT22;9732;52.498;5.408;2023-12-14T07:22:19;6.20;99.90
19200;DHT22;9732;52.498;5.408;2023-12-14T07:24:46;6.20;99.90
19200;DHT22;9732;52.498;5.408;2023-12-14T07:27:14;6.20;99.90
19200;DHT22;9732;52.498;5.408;2023-12-14T07:29:41;6.20;99.90
19200;DHT22;9732;52.498;5.408;2023-12-14T07:32:09;6.20;99.90
19200;DHT22;9732;52.498;5.408;2023-12-14T07:34:36;6.30;99.90
19200;DHT22;9732;52.498;5.408;2023-12-14T07:37:03;6.30;99.90
19200;DHT22;9732;52.498;5.408;2023-12-14T07:39:31;6.30;99.90
19200;DHT22;9732;52.498;5.408;2023-12-14T07:41:58;6.30;99.90
19200;DHT22;9732;52.498;5.408;2023-12-14T07:44:24;6.30;99.90
19200;DHT22;9732;52.498;5.408;2023-12-14T07:46:51;6.30;99.90
19200;DHT22;9732;52.498;5.408;2023-12-14T07:49:19;6.40;99.90
19200;DHT22;9732;52.498;5.408;2023-12-14T07:51:48;6.40;99.90
19200;DHT22;9732;52.498;5.408;2023-12-14T07:54:14;6.40;99.90
19200;DHT22;9732;52.498;5.408;2023-12-14T07:56:41;6.30;99.90
19200;DHT22;9732;52.498;5.408;2023-12-14T07:59:08;6.30;99.90
19200;DHT22;9732;52.498;5.408;2023-12-14T08:01:35;6.30;99.90
19200;DHT22;9732;52.498;5.408;2023-12-14T08:04:02;6.40;99.90
19200;DHT22;9732;52.498;5.408;2023-12-14T08:06:31;6.40;99.90
19200;DHT22;9732;52.498;5.408;2023-12-14T08:08:58;6.40;99.90
19200;DHT22;9732;52.498;5.408;2023-12-14T08:11:25;6.40;99.90
19200;DHT22;9732;52.498;5.408;2023-12-14T08:13:52;6.40;99.90
19200;DHT22;9732;52.498;5.408;2023-12-14T08:16:19;6.40;99.90
19200;DHT22;9732;52.498;5.408;2023-12-14T08:18:45;6.50;99.90
19200;DHT22;9732;52.498;5.408;2023-12-14T08:21:13;6.50;99.90
19200;DHT22;9732;52.498;5.408;2023-12-14T08:23:42;6.50;99.90
19200;DHT22;9732;52.498;5.408;2023-12-14T08:26:08;6.50;99.90
19200;DHT22;9732;52.498;5.408;2023-12-14T08:28:38;6.50;99.90
19200;DHT22;9732;52.498;5.408;2023-12-14T08:31:05;6.50;99.90
19200;DHT22;9732;52.498;5.408;2023-12-14T08:33:32;6.50;99.90
19200;DHT22;9732;52.498;5.408;2023-12-14T08:35:58;6.60;99.90
19200;DHT22;9732;52.498;5.408;2023-12-14T08:38:25;6.50;99.90
19200;DHT22;9732;52.498;5.408;2023-12-14T08:40:53;6.50;99.90
19200;DHT22;9732;52.498;5.408;2023-12-14T08:43:20;6.60;99.90
19200;DHT22;9732;52.498;5.408;2023-12-14T08:45:46;6.60;99.90
19200;DHT22;9732;52.498;5.408;2023-12-14T08:48:14;6.60;99.90
19200;DHT22;9732;52.498;5.408;2023-12-14T08:50:40;6.60;99.90
19200;DHT22;9732;52.498;5.408;2023-12-14T08:53:07;6.60;99.90
19200;DHT22;9732;52.498;5.408;2023-12-14T08:55:34;6.70;99.90
19200;DHT22;9732;52.498;5.408;2023-12-14T08:58:02;6.70;99.90
19200;DHT22;9732;52.498;5.408;2023-12-14T09:00:29;6.70;99.90
19200;DHT22;9732;52.498;5.408;2023-12-14T09:02:55;6.70;99.90
19200;DHT22;9732;52.498;5.408;2023-12-14T09:05:22;6.70;99.90
19200;DHT22;9732;52.498;5.408;2023-12-14T09:07:52;6.70;99.90
19200;DHT22;9732;52.498;5.408;2023-12-14T09:10:21;6.50;99.90
19200;DHT22;9732;52.498;5.408;2023-12-14T09:12:48;6.50;99.90
19200;DHT22;9732;52.498;5.408;2023-12-14T09:15:16;6.40;99.90
19200;DHT22;9732;52.498;5.408;2023-12-14T09:17:43;6.40;99.90
19200;DHT22;9732;52.498;5.408;2023-12-14T09:20:10;6.40;99.90
19200;DHT22;9732;52.498;5.408;2023-12-14T09:22:37;6.40;99.90
19200;DHT22;9732;52.498;5.408;2023-12-14T09:25:05;6.40;99.90
19200;DHT22;9732;52.498;5.408;2023-12-14T09:27:34;6.40;99.90
19200;DHT22;9732;52.498;5.408;2023-12-14T09:30:02;6.50;99.90
19200;DHT22;9732;52.498;5.408;2023-12-14T09:32:30;6.60;99.90
19200;DHT22;9732;52.498;5.408;2023-12-14T09:34:57;6.70;99.90
19200;DHT22;9732;52.498;5.408;2023-12-14T09:37:24;6.80;99.90
19200;DHT22;9732;52.498;5.408;2023-12-14T09:39:51;6.80;99.90
19200;DHT22;9732;52.498;5.408;2023-12-14T09:42:20;7.00;99.90
19200;DHT22;9732;52.498;5.408;2023-12-14T09:44:48;7.10;99.90
19200;DHT22;9732;52.498;5.408;2023-12-14T09:47:14;7.10;99.90
19200;DHT22;9732;52.498;5.408;2023-12-14T09:49:42;7.10;99.90
19200;DHT22;9732;52.498;5.408;2023-12-14T09:52:11;7.20;99.90
19200;DHT22;9732;52.498;5.408;2023-12-14T09:54:38;7.30;99.90
19200;DHT22;9732;52.498;5.408;2023-12-14T09:57:06;7.40;99.90
19200;DHT22;9732;52.498;5.408;2023-12-14T09:59:32;7.50;99.90
19200;DHT22;9732;52.498;5.408;2023-12-14T10:02:09;7.60;99.90
19200;DHT22;9732;52.498;5.408;2023-12-14T10:04:37;7.50;99.90
19200;DHT22;9732;52.498;5.408;2023-12-14T10:07:08;7.50;99.90
19200;DHT22;9732;52.498;5.408;2023-12-14T10:09:36;7.50;99.90
19200;DHT22;9732;52.498;5.408;2023-12-14T10:12:05;7.60;99.90
19200;DHT22;9732;52.498;5.408;2023-12-14T10:14:32;7.60;99.90
19200;DHT22;9732;52.498;5.408;2023-12-14T10:16:59;7.70;99.90
19200;DHT22;9732;52.498;5.408;2023-12-14T10:19:42;7.70;99.90
19200;DHT22;9732;52.498;5.408;2023-12-14T10:22:10;7.70;99.90
19200;DHT22;9732;52.498;5.408;2023-12-14T10:24:37;7.70;99.90
19200;DHT22;9732;52.498;5.408;2023-12-14T10:27:05;7.70;99.90
19200;DHT22;9732;52.498;5.408;2023-12-14T10:29:32;7.70;99.90
19200;DHT22;9732;52.498;5.408;2023-12-14T10:32:00;7.60;99.90
19200;DHT22;9732;52.498;5.408;2023-12-14T10:34:27;7.60;99.90
19200;DHT22;9732;52.498;5.408;2023-12-14T10:36:54;7.50;99.90
19200;DHT22;9732;52.498;5.408;2023-12-14T10:39:22;7.50;99.90
19200;DHT22;9732;52.498;5.408;2023-12-14T10:41:52;7.50;99.90
19200;DHT22;9732;52.498;5.408;2023-12-14T10:44:20;7.40;99.90
19200;DHT22;9732;52.498;5.408;2023-12-14T10:46:48;7.40;99.90
19200;DHT22;9732;52.498;5.408;2023-12-14T10:49:15;7.40;99.90
19200;DHT22;9732;52.498;5.408;2023-12-14T10:51:42;7.40;99.90
19200;DHT22;9732;52.498;5.408;2023-12-14T10:54:09;7.30;99.90
19200;DHT22;9732;52.498;5.408;2023-12-14T10:56:37;7.30;99.90
19200;DHT22;9732;52.498;5.408;2023-12-14T10:59:04;7.20;99.90
19200;DHT22;9732;52.498;5.408;2023-12-14T11:01:32;7.20;99.90
19200;DHT22;9732;52.498;5.408;2023-12-14T11:04:00;7.20;99.90
19200;DHT22;9732;52.498;5.408;2023-12-14T11:06:31;7.10;99.90
19200;DHT22;9732;52.498;5.408;2023-12-14T11:09:00;7.10;99.90
19200;DHT22;9732;52.498;5.408;2023-12-14T11:11:41;7.10;99.90
19200;DHT22;9732;52.498;5.408;2023-12-14T11:14:11;7.00;99.90
19200;DHT22;9732;52.498;5.408;2023-12-14T11:16:38;7.00;99.90
19200;DHT22;9732;52.498;5.408;2023-12-14T11:19:29;7.00;99.90
19200;DHT22;9732;52.498;5.408;2023-12-14T11:22:09;7.00;99.90
19200;DHT22;9732;52.498;5.408;2023-12-14T11:24:38;7.00;99.90
19200;DHT22;9732;52.498;5.408;2023-12-14T11:27:09;7.00;99.90
19200;DHT22;9732;52.498;5.408;2023-12-14T11:29:36;7.00;99.90
19200;DHT22;9732;52.498;5.408;2023-12-14T11:32:05;6.90;99.90
19200;DHT22;9732;52.498;5.408;2023-12-14T11:34:32;7.00;99.90
19200;DHT22;9732;52.498;5.408;2023-12-14T11:36:59;7.00;99.90
19200;DHT22;9732;52.498;5.408;2023-12-14T11:39:30;7.10;99.90
19200;DHT22;9732;52.498;5.408;2023-12-14T11:42:00;7.10;99.90
19200;DHT22;9732;52.498;5.408;2023-12-14T11:44:29;7.20;99.90
19200;DHT22;9732;52.498;5.408;2023-12-14T11:46:56;7.20;99.90
19200;DHT22;9732;52.498;5.408;2023-12-14T11:49:24;7.20;99.90
19200;DHT22;9732;52.498;5.408;2023-12-14T11:51:52;7.10;99.90
19200;DHT22;9732;52.498;5.408;2023-12-14T11:54:19;7.20;99.90
19200;DHT22;9732;52.498;5.408;2023-12-14T11:56:46;7.20;99.90
19200;DHT22;9732;52.498;5.408;2023-12-14T11:59:14;7.20;99.90
19200;DHT22;9732;52.498;5.408;2023-12-14T12:01:55;7.20;99.90
19200;DHT22;9732;52.498;5.408;2023-12-14T12:04:22;7.30;99.90
19200;DHT22;9732;52.498;5.408;2023-12-14T12:06:49;7.30;99.90
19200;DHT22;9732;52.498;5.408;2023-12-14T12:09:37;7.30;99.90
19200;DHT22;9732;52.498;5.408;2023-12-14T12:12:08;7.20;99.90
19200;DHT22;9732;52.498;5.408;2023-12-14T12:14:35;7.10;99.90
19200;DHT22;9732;52.498;5.408;2023-12-14T12:17:05;7.10;99.90
19200;DHT22;9732;52.498;5.408;2023-12-14T12:19:32;7.10;99.90
19200;DHT22;9732;52.498;5.408;2023-12-14T12:21:59;7.10;99.90
19200;DHT22;9732;52.498;5.408;2023-12-14T12:24:26;7.00;99.90
19200;DHT22;9732;52.498;5.408;2023-12-14T12:26:53;7.00;99.90
19200;DHT22;9732;52.498;5.408;2023-12-14T12:29:21;7.00;99.90
19200;DHT22;9732;52.498;5.408;2023-12-14T12:31:47;7.00;99.90
19200;DHT22;9732;52.498;5.408;2023-12-14T12:34:15;7.00;99.90
19200;DHT22;9732;52.498;5.408;2023-12-14T12:36:42;7.00;99.90
19200;DHT22;9732;52.498;5.408;2023-12-14T12:39:09;7.00;99.90
19200;DHT22;9732;52.498;5.408;2023-12-14T12:41:36;7.00;99.90
19200;DHT22;9732;52.498;5.408;2023-12-14T12:44:04;7.10;99.90
19200;DHT22;9732;52.498;5.408;2023-12-14T12:46:32;7.10;99.90
19200;DHT22;9732;52.498;5.408;2023-12-14T12:49:00;7.00;99.90
19200;DHT22;9732;52.498;5.408;2023-12-14T12:51:29;7.10;99.90
19200;DHT22;9732;52.498;5.408;2023-12-14T12:53:57;7.10;99.90
19200;DHT22;9732;52.498;5.408;2023-12-14T12:56:24;7.10;99.90
19200;DHT22;9732;52.498;5.408;2023-12-14T12:58:50;7.00;99.90
19200;DHT22;9732;52.498;5.408;2023-12-14T13:01:19;7.10;99.90
19200;DHT22;9732;52.498;5.408;2023-12-14T13:03:46;7.10;99.90
19200;DHT22;9732;52.498;5.408;2023-12-14T13:06:13;7.10;99.90
19200;DHT22;9732;52.498;5.408;2023-12-14T13:08:41;7.20;99.90
19200;DHT22;9732;52.498;5.408;2023-12-14T13:11:08;7.20;99.90
19200;DHT22;9732;52.498;5.408;2023-12-14T13:13:35;7.20;99.90
19200;DHT22;9732;52.498;5.408;2023-12-14T13:16:01;7.20;99.90
19200;DHT22;9732;52.498;5.408;2023-12-14T13:18:29;7.20;99.90
19200;DHT22;9732;52.498;5.408;2023-12-14T13:20:56;7.20;99.90
19200;DHT22;9732;52.498;5.408;2023-12-14T13:23:25;7.10;99.90
19200;DHT22;9732;52.498;5.408;2023-12-14T13:25:53;7.10;99.90
19200;DHT22;9732;52.498;5.408;2023-12-14T13:28:20;7.10;99.90
19200;DHT22;9732;52.498;5.408;2023-12-14T13:30:48;7.20;99.90
19200;DHT22;9732;52.498;5.408;2023-12-14T13:33:15;7.20;99.90
19200;DHT22;9732;52.498;5.408;2023-12-14T13:35:44;7.20;99.90
19200;DHT22;9732;52.498;5.408;2023-12-14T13:38:10;7.30;99.90
19200;DHT22;9732;52.498;5.408;2023-12-14T13:40:40;7.30;99.90
19200;DHT22;9732;52.498;5.408;2023-12-14T13:43:08;7.30;99.90
19200;DHT22;9732;52.498;5.408;2023-12-14T13:45:36;7.30;99.90
19200;DHT22;9732;52.498;5.408;2023-12-14T13:48:04;7.40;99.90
19200;DHT22;9732;52.498;5.408;2023-12-14T13:50:30;7.40;99.90
19200;DHT22;9732;52.498;5.408;2023-12-14T13:52:57;7.40;99.90
19200;DHT22;9732;52.498;5.408;2023-12-14T13:55:24;7.50;99.90
19200;DHT22;9732;52.498;5.408;2023-12-14T13:57:51;7.50;99.90
19200;DHT22;9732;52.498;5.408;2023-12-14T14:00:19;7.40;99.90
19200;DHT22;9732;52.498;5.408;2023-12-14T14:02:47;7.40;99.90
19200;DHT22;9732;52.498;5.408;2023-12-14T14:05:14;7.40;99.90
19200;DHT22;9732;52.498;5.408;2023-12-14T14:07:43;7.40;99.90
19200;DHT22;9732;52.498;5.408;2023-12-14T14:10:10;7.30;99.90
19200;DHT22;9732;52.498;5.408;2023-12-14T14:12:37;7.30;99.90
19200;DHT22;9732;52.498;5.408;2023-12-14T14:15:04;7.30;99.90
19200;DHT22;9732;52.498;5.408;2023-12-14T14:17:33;7.30;99.90
19200;DHT22;9732;52.498;5.408;2023-12-14T14:19:59;7.30;99.90
19200;DHT22;9732;52.498;5.408;2023-12-14T14:22:26;7.30;99.90
19200;DHT22;9732;52.498;5.408;2023-12-14T14:24:53;7.30;99.90
19200;DHT22;9732;52.498;5.408;2023-12-14T14:27:20;7.30;99.90
19200;DHT22;9732;52.498;5.408;2023-12-14T14:29:47;7.30;99.90
19200;DHT22;9732;52.498;5.408;2023-12-14T14:32:13;7.30;99.90
19200;DHT22;9732;52.498;5.408;2023-12-14T14:34:42;7.30;99.90
19200;DHT22;9732;52.498;5.408;2023-12-14T14:37:09;7.20;99.90
19200;DHT22;9732;52.498;5.408;2023-12-14T14:39:35;7.20;99.90
19200;DHT22;9732;52.498;5.408;2023-12-14T14:42:03;7.10;99.90
19200;DHT22;9732;52.498;5.408;2023-12-14T14:44:30;7.10;99.90
19200;DHT22;9732;52.498;5.408;2023-12-14T14:46:57;7.20;99.90
19200;DHT22;9732;52.498;5.408;2023-12-14T14:49:23;7.30;99.90
19200;DHT22;9732;52.498;5.408;2023-12-14T14:51:51;7.10;99.90
19200;DHT22;9732;52.498;5.408;2023-12-14T14:54:18;7.10;99.90
19200;DHT22;9732;52.498;5.408;2023-12-14T14:56:45;7.20;99.90
19200;DHT22;9732;52.498;5.408;2023-12-14T14:59:12;7.10;99.90
19200;DHT22;9732;52.498;5.408;2023-12-14T15:01:41;7.10;99.90
19200;DHT22;9732;52.498;5.408;2023-12-14T15:04:07;7.10;99.90
19200;DHT22;9732;52.498;5.408;2023-12-14T15:06:34;7.00;99.90
19200;DHT22;9732;52.498;5.408;2023-12-14T15:09:09;7.00;99.90
19200;DHT22;9732;52.498;5.408;2023-12-14T15:11:38;7.00;99.90
19200;DHT22;9732;52.498;5.408;2023-12-14T15:14:04;7.00;99.90
19200;DHT22;9732;52.498;5.408;2023-12-14T15:16:31;7.00;99.90
19200;DHT22;9732;52.498;5.408;2023-12-14T15:18:58;7.00;99.90
19200;DHT22;9732;52.498;5.408;2023-12-14T15:21:24;7.00;99.90
19200;DHT22;9732;52.498;5.408;2023-12-14T15:23:51;6.90;99.90
19200;DHT22;9732;52.498;5.408;2023-12-14T15:26:20;6.90;99.90
19200;DHT22;9732;52.498;5.408;2023-12-14T15:28:47;6.80;99.90
19200;DHT22;9732;52.498;5.408;2023-12-14T15:31:14;6.80;99.90
19200;DHT22;9732;52.498;5.408;2023-12-14T15:33:41;6.80;99.90
19200;DHT22;9732;52.498;5.408;2023-12-14T15:36:08;6.80;99.90
19200;DHT22;9732;52.498;5.408;2023-12-14T15:38:35;6.80;99.90
19200;DHT22;9732;52.498;5.408;2023-12-14T15:41:01;6.70;99.90
19200;DHT22;9732;52.498;5.408;2023-12-14T15:43:30;6.70;99.90
19200;DHT22;9732;52.498;5.408;2023-12-14T15:45:56;6.80;99.90
19200;DHT22;9732;52.498;5.408;2023-12-14T15:48:23;6.70;99.90
19200;DHT22;9732;52.498;5.408;2023-12-14T15:50:50;6.70;99.90
19200;DHT22;9732;52.498;5.408;2023-12-14T15:53:17;6.70;99.90
19200;DHT22;9732;52.498;5.408;2023-12-14T15:55:43;6.70;99.90
19200;DHT22;9732;52.498;5.408;2023-12-14T15:58:10;6.70;99.90
19200;DHT22;9732;52.498;5.408;2023-12-14T16:00:38;6.70;99.90
19200;DHT22;9732;52.498;5.408;2023-12-14T16:03:05;6.70;99.90